Time;durP1;ratioP1;P1;durP2;ratioP2;P2;SDS_P1;SDS_P2;PMS_P1;PMS_P2;Temp;Humidity;BMP_temperature;BMP_pressure;BME280_temperature;BME280_humidity;BME280_pressure;Samples;Min_cycle;Max_cycle;Signal;HPM_P1;HPM_P2
2022/09/02 00:01:54;;;;;;;3.08;1.60;;;24.50;66.10;;;;;;5061374;28;20204;-77
2022/09/02 00:04:26;;;;;;;7.40;1.55;;;24.40;65.80;;;;;;5062220;28;20289;-80
2022/09/02 00:06:55;;;;;;;2.67;1.50;;;24.40;66.40;;;;;;5059186;28;20207;-79
2022/09/02 00:09:25;;;;;;;6.28;1.20;;;24.40;65.70;;;;;;5058090;28;20616;-80
2022/09/02 00:11:54;;;;;;;2.35;1.20;;;24.30;65.20;;;;;;5059582;28;20237;-79
2022/09/02 00:14:27;;;;;;;3.25;1.58;;;24.30;65.20;;;;;;5062005;28;20197;-79
2022/09/02 00:16:59;;;;;;;2.20;1.17;;;24.30;65.10;;;;;;5062394;28;20197;-79
2022/09/02 00:19:30;;;;;;;5.22;1.48;;;24.30;65.10;;;;;;5064699;28;20190;-80
2022/09/02 00:22:00;;;;;;;5.85;1.90;;;24.20;65.10;;;;;;5059867;28;20202;-79
2022/09/02 00:24:29;;;;;;;2.67;1.20;;;24.20;65.10;;;;;;5062247;28;20822;-78
2022/09/02 00:26:57;;;;;;;2.85;1.35;;;24.20;64.90;;;;;;5065096;28;20244;-80
2022/09/02 00:29:27;;;;;;;6.28;1.42;;;24.20;64.80;;;;;;5062102;28;20198;-79
2022/09/02 00:31:56;;;;;;;1.83;1.02;;;24.10;64.70;;;;;;5066454;28;20213;-80
2022/09/02 00:34:25;;;;;;;2.15;1.30;;;24.10;64.70;;;;;;5066254;28;20190;-81
2022/09/02 00:36:55;;;;;;;2.53;1.30;;;24.10;64.80;;;;;;5065869;28;20198;-79
2022/09/02 00:39:24;;;;;;;3.72;1.55;;;24.10;64.90;;;;;;5055943;28;20225;-80
2022/09/02 00:41:53;;;;;;;2.92;1.38;;;24.10;64.60;;;;;;5063574;28;20285;-79
2022/09/02 00:44:22;;;;;;;3.53;1.55;;;24.10;64.70;;;;;;5066000;28;20199;-79
2022/09/02 00:46:50;;;;;;;3.53;1.15;;;24.00;64.70;;;;;;5062744;28;20818;-79
2022/09/02 00:49:24;;;;;;;4.72;1.30;;;24.00;64.70;;;;;;5064077;28;20503;-77
2022/09/02 00:51:59;;;;;;;2.80;1.40;;;24.00;65.50;;;;;;5066768;28;20198;-80
2022/09/02 00:54:29;;;;;;;5.78;1.40;;;24.00;64.80;;;;;;5066313;28;20193;-79
2022/09/02 00:57:00;;;;;;;6.80;1.42;;;24.00;64.70;;;;;;5061516;28;20190;-78
2022/09/02 00:59:41;;;;;;;4.93;1.48;;;24.00;64.70;;;;;;5065827;28;20221;-76
2022/09/02 01:02:10;;;;;;;5.53;1.45;;;23.90;64.30;;;;;;5062087;28;20759;-77
2022/09/02 01:04:38;;;;;;;4.35;1.67;;;23.90;64.30;;;;;;5064407;28;20317;-78
2022/09/02 01:07:08;;;;;;;2.67;1.30;;;23.80;64.20;;;;;;5067069;28;20231;-78
2022/09/02 01:09:38;;;;;;;3.17;1.30;;;23.80;64.20;;;;;;5064676;28;20194;-76
2022/09/02 01:12:07;;;;;;;2.30;1.20;;;23.80;64.10;;;;;;5058191;28;20204;-79
2022/09/02 01:14:36;;;;;;;2.65;1.30;;;23.70;64.10;;;;;;5064636;28;20228;-78
2022/09/02 01:17:05;;;;;;;3.30;1.42;;;23.70;64.30;;;;;;5064297;28;20194;-77
2022/09/02 01:19:38;;;;;;;4.80;2.08;;;23.70;64.20;;;;;;5065766;28;20208;-78
2022/09/02 01:22:17;;;;;;;6.00;1.42;;;23.70;65.20;;;;;;5061663;28;20666;-77
2022/09/02 01:24:45;;;;;;;7.07;1.50;;;23.70;64.40;;;;;;5066609;28;20190;-78
2022/09/02 01:27:17;;;;;;;3.20;1.40;;;23.70;64.40;;;;;;5058357;28;20226;-79
2022/09/02 01:29:46;;;;;;;4.45;1.70;;;23.60;64.20;;;;;;5065662;28;20198;-77
2022/09/02 01:32:14;;;;;;;2.63;1.48;;;23.60;64.30;;;;;;5062329;28;20215;-77
2022/09/02 01:34:43;;;;;;;6.22;1.65;;;23.60;64.40;;;;;;5062005;28;20762;-78
2022/09/02 01:37:13;;;;;;;6.07;2.25;;;23.60;64.40;;;;;;5061972;28;20198;-78
2022/09/02 01:39:41;;;;;;;5.15;1.67;;;23.50;64.40;;;;;;5044720;28;20203;-74
2022/09/02 01:42:10;;;;;;;2.47;1.15;;;23.50;64.40;;;;;;5043334;28;20195;-78
2022/09/02 01:44:42;;;;;;;4.65;1.60;;;23.50;64.30;;;;;;5041627;28;20207;-78
2022/09/02 01:47:11;;;;;;;5.65;1.80;;;23.50;64.50;;;;;;5045763;28;20298;-78
2022/09/02 01:49:40;;;;;;;3.33;1.67;;;23.50;64.60;;;;;;5045765;28;20195;-79
2022/09/02 01:52:09;;;;;;;4.47;1.50;;;23.40;64.70;;;;;;5035759;28;20207;-77
2022/09/02 01:54:39;;;;;;;3.15;1.77;;;23.40;64.70;;;;;;5044998;28;20195;-78
2022/09/02 01:57:08;;;;;;;4.10;1.75;;;23.50;64.80;;;;;;5041652;28;20183;-77
2022/09/02 01:59:36;;;;;;;4.13;1.88;;;23.50;64.70;;;;;;5041651;28;20569;-76
2022/09/02 02:02:05;;;;;;;5.53;1.50;;;23.50;64.70;;;;;;5044249;28;20565;-79
2022/09/02 02:04:34;;;;;;;6.97;1.83;;;23.40;64.60;;;;;;5042443;28;20191;-79
2022/09/02 02:07:03;;;;;;;4.00;1.73;;;23.40;64.40;;;;;;5041556;28;20242;-78
2022/09/02 02:09:32;;;;;;;5.25;1.63;;;23.50;64.40;;;;;;5045141;28;20301;-77
2022/09/02 02:12:02;;;;;;;5.13;1.80;;;23.40;64.30;;;;;;5045208;28;20195;-79
2022/09/02 02:14:31;;;;;;;3.17;1.73;;;23.40;64.10;;;;;;5043993;28;20190;-76
2022/09/02 02:16:59;;;;;;;3.13;1.40;;;23.40;64.10;;;;;;5046109;28;20187;-77
2022/09/02 02:19:28;;;;;;;4.00;1.83;;;23.40;64.30;;;;;;5047270;28;20199;-78
2022/09/02 02:21:58;;;;;;;5.40;1.88;;;23.40;63.90;;;;;;5044715;28;20544;-77
2022/09/02 02:24:27;;;;;;;7.25;1.50;;;23.40;64.00;;;;;;5040860;28;20207;-78
2022/09/02 02:26:56;;;;;;;3.20;1.70;;;23.40;64.10;;;;;;5044347;28;20259;-79
2022/09/02 02:29:25;;;;;;;3.67;1.65;;;23.40;64.10;;;;;;5042182;28;20732;-76
2022/09/02 02:31:54;;;;;;;4.60;1.45;;;23.40;64.20;;;;;;5045905;28;20194;-80
2022/09/02 02:34:22;;;;;;;6.68;2.05;;;23.40;64.10;;;;;;5042489;28;20203;-79
2022/09/02 02:36:51;;;;;;;6.28;1.90;;;23.40;64.10;;;;;;5042546;28;20199;-79
2022/09/02 02:39:19;;;;;;;4.93;1.40;;;23.40;64.20;;;;;;5046004;28;20264;-77
2022/09/02 02:41:48;;;;;;;4.20;1.67;;;23.40;63.90;;;;;;5060026;28;20699;-77
2022/09/02 02:44:16;;;;;;;5.45;1.63;;;23.40;63.90;;;;;;5062099;28;20206;-79
2022/09/02 02:46:46;;;;;;;8.82;2.05;;;23.30;63.80;;;;;;5059044;28;20205;-78
2022/09/02 02:49:14;;;;;;;5.30;1.63;;;23.30;63.70;;;;;;5058018;28;20237;-76
2022/09/02 02:51:43;;;;;;;5.22;1.65;;;23.40;63.80;;;;;;5059816;28;20207;-79
2022/09/02 02:54:13;;;;;;;5.47;2.00;;;23.30;63.80;;;;;;5059294;28;20198;-80
2022/09/02 02:56:41;;;;;;;3.58;1.63;;;23.40;64.00;;;;;;5058307;28;20752;-77
2022/09/02 02:59:10;;;;;;;6.53;2.10;;;23.40;64.10;;;;;;5059240;28;20209;-79
2022/09/02 03:01:38;;;;;;;3.92;1.80;;;23.30;63.70;;;;;;5061166;28;20201;-79
2022/09/02 03:04:08;;;;;;;6.03;1.55;;;23.30;63.80;;;;;;5061629;28;20264;-78
2022/09/02 03:06:37;;;;;;;6.97;2.90;;;23.30;63.60;;;;;;5060976;28;20201;-78
2022/09/02 03:09:05;;;;;;;6.93;1.90;;;23.20;63.50;;;;;;5053477;28;20222;-75
2022/09/02 03:11:34;;;;;;;4.82;1.65;;;23.20;63.60;;;;;;5061952;28;20195;-77
2022/09/02 03:14:03;;;;;;;5.15;1.98;;;23.20;63.80;;;;;;5061900;28;20852;-77
2022/09/02 03:16:33;;;;;;;6.85;1.88;;;23.20;63.60;;;;;;5057681;28;20252;-78
2022/09/02 03:19:03;;;;;;;6.63;1.98;;;23.20;63.80;;;;;;5057513;28;20229;-77
2022/09/02 03:21:33;;;;;;;7.45;1.65;;;23.20;63.60;;;;;;5059691;28;20209;-78
2022/09/02 03:24:07;;;;;;;3.85;1.33;;;23.10;63.60;;;;;;5056654;28;20186;-77
2022/09/02 03:26:35;;;;;;;3.78;1.80;;;23.10;63.60;;;;;;5053280;28;21150;-78
2022/09/02 03:29:04;;;;;;;4.93;2.10;;;23.10;63.50;;;;;;5052654;28;20217;-77
2022/09/02 03:31:33;;;;;;;3.42;1.50;;;23.10;63.50;;;;;;5055446;28;20190;-75
2022/09/02 03:34:03;;;;;;;4.90;1.80;;;23.10;63.60;;;;;;5059647;28;20206;-79
2022/09/02 03:36:35;;;;;;;6.13;2.00;;;23.10;63.40;;;;;;5056772;28;20194;-78
2022/09/02 03:39:07;;;;;;;6.13;1.77;;;23.10;63.60;;;;;;5046815;28;20233;-78
2022/09/02 03:41:39;;;;;;;4.68;1.88;;;23.10;63.40;;;;;;5057181;28;20197;-74
2022/09/02 03:44:08;;;;;;;2.75;1.55;;;23.10;63.40;;;;;;5059482;28;20260;-77
2022/09/02 03:46:37;;;;;;;4.70;1.85;;;23.10;63.60;;;;;;5057704;28;20190;-79
2022/09/02 03:49:06;;;;;;;4.05;1.67;;;23.10;63.80;;;;;;5051520;28;20211;-76
2022/09/02 03:51:39;;;;;;;4.35;1.50;;;23.10;64.20;;;;;;5058371;28;20198;-76
2022/09/02 03:54:09;;;;;;;4.45;1.58;;;23.10;64.10;;;;;;5056156;28;20186;-79
2022/09/02 03:56:37;;;;;;;4.03;1.90;;;23.10;64.50;;;;;;5059956;28;20198;-75
2022/09/02 03:59:07;;;;;;;4.20;1.70;;;23.10;64.80;;;;;;5064897;28;20190;-75
2022/09/02 04:01:36;;;;;;;4.05;1.52;;;23.00;64.80;;;;;;5057791;28;20206;-76
2022/09/02 04:04:04;;;;;;;3.22;1.70;;;23.00;64.50;;;;;;5054932;28;20707;-77
2022/09/02 04:06:33;;;;;;;5.43;2.05;;;23.00;64.50;;;;;;5065318;28;20216;-79
2022/09/02 04:09:04;;;;;;;4.82;1.55;;;22.90;63.90;;;;;;5058784;28;20206;-78
2022/09/02 04:11:32;;;;;;;5.60;1.70;;;22.90;64.00;;;;;;5059961;28;20201;-78
2022/09/02 04:14:01;;;;;;;4.82;1.88;;;22.90;64.10;;;;;;5051211;28;20198;-78
2022/09/02 04:16:30;;;;;;;5.97;2.03;;;22.90;64.00;;;;;;5060205;28;20210;-79
2022/09/02 04:19:00;;;;;;;3.33;1.45;;;22.90;64.20;;;;;;5062941;28;20594;-78
2022/09/02 04:21:29;;;;;;;4.30;1.60;;;22.80;64.00;;;;;;5059642;28;20191;-78
2022/09/02 04:23:58;;;;;;;4.03;1.70;;;22.80;63.90;;;;;;5060718;28;20213;-79
2022/09/02 04:26:29;;;;;;;2.88;1.52;;;22.80;63.80;;;;;;5061921;28;20281;-78
2022/09/02 04:28:57;;;;;;;9.05;1.95;;;22.80;63.70;;;;;;5061203;28;20214;-76
2022/09/02 04:31:28;;;;;;;2.75;1.38;;;22.80;63.30;;;;;;5058491;28;20202;-78
2022/09/02 04:33:57;;;;;;;4.25;1.60;;;22.80;63.40;;;;;;5060825;28;20194;-79
2022/09/02 04:36:27;;;;;;;4.13;2.38;;;22.80;63.60;;;;;;5056821;28;20203;-76
2022/09/02 04:38:58;;;;;;;4.05;1.50;;;22.90;63.80;;;;;;5059806;28;20232;-78
2022/09/02 04:41:30;;;;;;;3.97;1.38;;;22.80;63.50;;;;;;5059112;28;20237;-77
2022/09/02 04:44:00;;;;;;;5.45;2.00;;;22.80;63.10;;;;;;5051964;28;20194;-77
2022/09/02 04:46:28;;;;;;;6.25;1.50;;;22.80;63.20;;;;;;5061563;28;20202;-77
2022/09/02 04:49:02;;;;;;;4.57;1.63;;;22.80;63.30;;;;;;5061525;28;20202;-78
2022/09/02 04:51:31;;;;;;;3.35;1.48;;;22.80;63.00;;;;;;5056897;28;20198;-79
2022/09/02 04:54:01;;;;;;;3.05;1.30;;;22.80;63.20;;;;;;5055308;28;20599;-77
2022/09/02 04:56:32;;;;;;;5.05;1.63;;;22.70;63.20;;;;;;5061370;28;20202;-74
2022/09/02 04:59:00;;;;;;;3.53;1.20;;;22.70;63.20;;;;;;5049507;28;20719;-78
2022/09/02 05:01:31;;;;;;;5.50;1.60;;;22.70;63.20;;;;;;5059048;28;20205;-77
2022/09/02 05:04:01;;;;;;;5.38;1.85;;;22.70;63.30;;;;;;5057631;28;20687;-76
2022/09/02 05:06:30;;;;;;;5.82;1.73;;;22.70;63.50;;;;;;5065481;28;20214;-78
2022/09/02 05:09:00;;;;;;;4.75;1.63;;;22.80;63.70;;;;;;5063036;28;20211;-77
2022/09/02 05:11:32;;;;;;;3.55;1.63;;;22.80;63.80;;;;;;5062614;28;20194;-77
2022/09/02 05:14:03;;;;;;;4.97;1.83;;;22.80;63.80;;;;;;5060040;28;20195;-78
2022/09/02 05:16:35;;;;;;;7.70;1.98;;;22.80;63.80;;;;;;5066484;28;20213;-77
2022/09/02 05:19:06;;;;;;;4.97;1.67;;;22.80;63.60;;;;;;5062747;28;20273;-75
2022/09/02 05:21:34;;;;;;;6.20;1.50;;;22.80;63.60;;;;;;5063905;28;20803;-78
2022/09/02 05:24:03;;;;;;;3.55;1.38;;;22.90;63.50;;;;;;5062721;28;20194;-79
2022/09/02 05:26:34;;;;;;;4.93;2.00;;;22.90;63.50;;;;;;5058910;28;20205;-76
2022/09/02 05:29:05;;;;;;;3.90;1.40;;;22.90;63.60;;;;;;5059243;28;20202;-77
2022/09/02 05:31:34;;;;;;;2.13;1.10;;;22.90;63.60;;;;;;5057693;28;20294;-79
2022/09/02 05:34:02;;;;;;;3.63;1.60;;;22.90;63.50;;;;;;5055370;28;20538;-76
2022/09/02 05:36:31;;;;;;;3.28;1.50;;;22.90;63.50;;;;;;5054376;28;20191;-76
2022/09/02 05:39:00;;;;;;;3.80;1.30;;;22.90;63.60;;;;;;5062662;28;20242;-76
2022/09/02 05:41:29;;;;;;;4.00;1.70;;;23.00;63.70;;;;;;5060702;28;20232;-78
2022/09/02 05:44:01;;;;;;;3.88;1.60;;;23.00;63.80;;;;;;5066583;28;20190;-75
2022/09/02 05:46:31;;;;;;;5.80;1.40;;;22.90;63.50;;;;;;5063661;28;20566;-75
2022/09/02 05:49:16;;;;;;;4.72;1.75;;;22.90;63.30;;;;;;5066337;28;20222;-77
2022/09/02 05:51:47;;;;;;;8.23;1.70;;;22.90;63.50;;;;;;5057024;28;20214;-76
2022/09/02 05:54:17;;;;;;;4.70;1.42;;;22.90;63.80;;;;;;5062331;28;20644;-75
2022/09/02 05:56:47;;;;;;;6.20;2.03;;;22.90;63.80;;;;;;5064834;28;20201;-77
2022/09/02 05:59:18;;;;;;;4.45;1.60;;;22.90;63.80;;;;;;5064420;28;20194;-75
2022/09/02 06:01:47;;;;;;;2.45;1.20;;;22.90;63.90;;;;;;5065061;28;20641;-75
2022/09/02 06:04:16;;;;;;;3.92;1.23;;;22.90;63.90;;;;;;5061927;28;20252;-77
2022/09/02 06:06:45;;;;;;;4.00;1.60;;;22.90;63.90;;;;;;5066076;28;20206;-77
2022/09/02 06:09:22;;;;;;;3.70;1.40;;;22.90;64.20;;;;;;5062931;28;20941;-76
2022/09/02 06:11:51;;;;;;;4.18;1.30;;;22.90;64.20;;;;;;5058365;28;20202;-76
2022/09/02 06:14:23;;;;;;;7.70;1.58;;;22.90;64.40;;;;;;5060610;28;20191;-75
2022/09/02 06:16:53;;;;;;;4.90;1.60;;;22.90;64.70;;;;;;5062225;28;20660;-74
2022/09/02 06:19:24;;;;;;;4.57;1.40;;;22.90;64.60;;;;;;5065593;28;20197;-75
2022/09/02 06:21:58;;;;;;;4.55;1.30;;;23.00;64.50;;;;;;5058391;28;20194;-76
2022/09/02 06:24:27;;;;;;;3.55;1.50;;;23.00;64.70;;;;;;5064647;28;20199;-75
2022/09/02 06:26:57;;;;;;;3.30;1.52;;;23.00;64.80;;;;;;5026704;28;20889;-77
2022/09/02 06:29:29;;;;;;;2.50;1.45;;;23.10;64.80;;;;;;5050184;28;20700;-77
2022/09/02 06:31:57;;;;;;;5.18;1.42;;;23.00;64.60;;;;;;5061746;28;20526;-75
2022/09/02 06:34:27;;;;;;;3.90;1.80;;;23.10;64.70;;;;;;5064946;28;20195;-75
2022/09/02 06:36:56;;;;;;;2.58;1.10;;;23.10;64.60;;;;;;5062369;28;20556;-76
2022/09/02 06:39:25;;;;;;;8.32;1.75;;;23.10;64.80;;;;;;5048804;28;20221;-78
2022/09/02 06:41:54;;;;;;;10.32;1.45;;;23.10;64.90;;;;;;5057883;28;20221;-76
2022/09/02 06:44:24;;;;;;;6.82;1.52;;;23.20;65.00;;;;;;5060749;28;20194;-75
2022/09/02 06:46:56;;;;;;;5.18;1.50;;;23.20;65.00;;;;;;5061710;28;20194;-78
2022/09/02 06:49:27;;;;;;;7.72;2.10;;;23.20;64.80;;;;;;5064803;28;20755;-76
2022/09/02 06:51:56;;;;;;;4.40;1.70;;;23.30;65.00;;;;;;5063851;28;20256;-78
2022/09/02 06:54:25;;;;;;;4.55;1.70;;;23.30;64.90;;;;;;5058801;28;20818;-78
2022/09/02 06:56:54;;;;;;;2.72;1.30;;;23.40;65.00;;;;;;5062101;28;20640;-79
2022/09/02 06:59:26;;;;;;;1.98;1.08;;;23.40;65.00;;;;;;5061847;28;20197;-76
2022/09/02 07:01:56;;;;;;;6.55;1.42;;;23.50;64.70;;;;;;5059975;28;20194;-80
2022/09/02 07:07:12;;;;;;;5.10;1.15;;;23.50;64.00;;;;;;5061809;28;20277;-77
2022/09/02 07:09:40;;;;;;;4.68;1.50;;;23.60;64.10;;;;;;5064416;28;20680;-76
2022/09/02 07:12:09;;;;;;;3.20;1.55;;;23.60;63.90;;;;;;5063244;28;20217;-76
2022/09/02 07:14:39;;;;;;;4.05;1.52;;;23.70;63.80;;;;;;5062392;28;20198;-77
2022/09/02 07:17:09;;;;;;;2.65;1.30;;;23.70;63.80;;;;;;5062622;28;20206;-78
2022/09/02 07:19:38;;;;;;;6.25;1.98;;;23.80;64.00;;;;;;5065228;28;20271;-77
2022/09/02 07:22:07;;;;;;;5.15;1.40;;;23.80;63.80;;;;;;5064522;28;20210;-76
2022/09/02 07:24:36;;;;;;;5.13;1.30;;;23.90;63.80;;;;;;5063225;28;20206;-78
2022/09/02 07:27:05;;;;;;;5.20;1.50;;;23.90;63.70;;;;;;5061572;28;20192;-78
2022/09/02 07:29:34;;;;;;;2.97;1.35;;;23.90;63.40;;;;;;5063089;28;20225;-78
2022/09/02 07:32:03;;;;;;;4.43;1.50;;;23.90;63.70;;;;;;5062818;28;20206;-79
2022/09/02 07:34:33;;;;;;;5.70;1.30;;;24.00;63.70;;;;;;5063122;28;20769;-77
2022/09/02 07:37:02;;;;;;;3.42;1.35;;;24.00;63.70;;;;;;5061118;28;20202;-77
2022/09/02 07:39:37;;;;;;;4.50;1.02;;;24.00;63.50;;;;;;5064420;28;20236;-80
2022/09/02 07:42:06;;;;;;;3.40;1.40;;;24.00;63.60;;;;;;5063568;28;20212;-77
2022/09/02 07:44:36;;;;;;;3.72;1.38;;;24.00;63.70;;;;;;5063869;28;20194;-78
2022/09/02 07:47:06;;;;;;;2.88;1.00;;;24.00;63.80;;;;;;5062520;28;20190;-78
2022/09/02 07:49:36;;;;;;;4.75;1.30;;;24.10;63.80;;;;;;5062811;28;20256;-77
2022/09/02 07:52:25;;;;;;;2.63;1.40;;;24.00;63.80;;;;;;5049948;28;20202;-79
2022/09/02 07:54:53;;;;;;;4.32;1.95;;;24.10;63.90;;;;;;5062363;28;20202;-76
2022/09/02 07:57:22;;;;;;;3.65;1.48;;;24.10;64.00;;;;;;5063250;28;20206;-76
2022/09/02 07:59:51;;;;;;;6.45;1.27;;;24.10;63.80;;;;;;5060925;28;20205;-78
2022/09/02 08:02:19;;;;;;;3.28;1.30;;;24.10;63.80;;;;;;5061418;28;20213;-76
2022/09/02 08:04:50;;;;;;;4.70;1.50;;;24.10;63.60;;;;;;5063473;28;20891;-76
2022/09/02 08:07:22;;;;;;;3.58;1.50;;;24.10;63.80;;;;;;5059992;28;20205;-78
2022/09/02 08:09:51;;;;;;;7.53;1.48;;;24.10;64.00;;;;;;5056505;28;20305;-75
2022/09/02 08:12:20;;;;;;;4.82;1.75;;;24.10;64.10;;;;;;5062061;28;20278;-75
2022/09/02 08:14:49;;;;;;;5.72;1.40;;;24.20;64.30;;;;;;5061051;28;20230;-77
2022/09/02 08:17:18;;;;;;;3.95;1.60;;;24.30;64.50;;;;;;5054553;28;20222;-73
2022/09/02 08:19:53;;;;;;;2.75;1.08;;;24.30;64.80;;;;;;5057861;28;20291;-75
2022/09/02 08:22:21;;;;;;;4.40;1.75;;;24.40;64.90;;;;;;5062804;28;20276;-75
2022/09/02 08:24:49;;;;;;;6.00;2.40;;;24.50;64.80;;;;;;5057834;28;20197;-76
2022/09/02 08:27:18;;;;;;;9.57;1.77;;;24.50;64.70;;;;;;5058902;28;20198;-76
2022/09/02 08:29:46;;;;;;;5.35;1.40;;;24.50;64.70;;;;;;5055944;28;20206;-76
2022/09/02 08:32:15;;;;;;;5.32;1.80;;;24.60;65.00;;;;;;5055800;28;21538;-74
2022/09/02 08:34:43;;;;;;;7.13;1.73;;;24.60;64.80;;;;;;5059455;28;20202;-73
2022/09/02 08:37:13;;;;;;;3.65;1.38;;;24.60;64.60;;;;;;5063625;28;20205;-73
2022/09/02 08:39:41;;;;;;;3.45;1.50;;;24.70;64.50;;;;;;5061913;28;20585;-74
2022/09/02 08:42:17;;;;;;;4.90;1.60;;;24.80;64.50;;;;;;5058526;28;20199;-75
2022/09/02 08:44:47;;;;;;;3.78;1.42;;;24.80;64.40;;;;;;5064512;28;20208;-76
2022/09/02 08:47:21;;;;;;;9.00;1.48;;;24.80;64.30;;;;;;5060423;28;20249;-75
2022/09/02 08:49:53;;;;;;;4.20;1.42;;;24.90;64.40;;;;;;5063932;28;20198;-76
2022/09/02 08:52:29;;;;;;;7.15;1.67;;;25.00;64.40;;;;;;5059222;28;20656;-76
2022/09/02 08:54:58;;;;;;;4.05;1.52;;;25.10;64.10;;;;;;5048827;28;20866;-76
2022/09/02 08:57:27;;;;;;;5.45;1.95;;;25.10;63.60;;;;;;5060427;28;20844;-76
2022/09/02 08:59:59;;;;;;;4.00;1.75;;;25.20;63.90;;;;;;5061506;28;20290;-75
2022/09/02 09:02:41;;;;;;;6.93;1.73;;;25.20;63.70;;;;;;5061250;28;20624;-74
2022/09/02 09:05:26;;;;;;;2.97;1.50;;;25.30;63.60;;;;;;5064021;28;20198;-75
2022/09/02 09:08:04;;;;;;;8.75;1.90;;;25.30;63.50;;;;;;5062768;28;20217;-75
2022/09/02 09:10:44;;;;;;;3.10;1.63;;;25.40;63.60;;;;;;5053297;28;20210;-75
2022/09/02 09:13:30;;;;;;;4.60;1.77;;;25.40;63.60;;;;;;5065210;28;20197;-74
2022/09/02 09:16:08;;;;;;;4.45;1.60;;;25.50;64.00;;;;;;5063754;28;20194;-75
2022/09/02 09:18:39;;;;;;;3.78;1.50;;;25.60;63.70;;;;;;5056685;28;20204;-76
2022/09/02 09:21:08;;;;;;;3.25;1.33;;;25.60;63.50;;;;;;5066180;28;20197;-74
2022/09/02 09:23:42;;;;;;;7.00;1.48;;;25.60;63.40;;;;;;5071932;28;20252;-76
2022/09/02 09:26:12;;;;;;;4.53;1.58;;;25.60;63.50;;;;;;5057026;28;20194;-78
2022/09/02 09:28:44;;;;;;;8.57;1.73;;;25.70;63.60;;;;;;5062287;28;20198;-76
2022/09/02 09:31:16;;;;;;;2.22;1.20;;;25.80;63.30;;;;;;5061563;28;20206;-78
2022/09/02 09:33:59;;;;;;;7.10;1.50;;;25.80;62.80;;;;;;5063768;28;20202;-75
2022/09/02 09:36:50;;;;;;;5.82;1.30;;;25.90;62.60;;;;;;5065799;28;20195;-75
2022/09/02 09:39:26;;;;;;;4.03;1.50;;;26.00;62.70;;;;;;5060983;28;20592;-76
2022/09/02 09:41:56;;;;;;;3.88;1.45;;;26.00;62.80;;;;;;5062961;28;20202;-76
2022/09/02 09:44:44;;;;;;;4.18;1.35;;;26.10;62.60;;;;;;5060773;28;20196;-75
2022/09/02 09:47:19;;;;;;;3.67;1.80;;;26.10;62.50;;;;;;5063754;28;20543;-75
2022/09/02 09:49:50;;;;;;;4.05;1.60;;;26.10;62.20;;;;;;5060208;28;20205;-79
2022/09/02 09:52:25;;;;;;;5.22;1.70;;;26.20;61.90;;;;;;5048967;28;20217;-76
2022/09/02 09:55:14;;;;;;;9.90;2.30;;;26.20;61.70;;;;;;5054960;28;20220;-77
2022/09/02 09:57:53;;;;;;;4.43;1.40;;;26.20;62.20;;;;;;5061470;28;20230;-74
2022/09/02 10:00:31;;;;;;;5.22;1.73;;;26.20;62.00;;;;;;5060538;28;20206;-75
2022/09/02 10:03:02;;;;;;;9.57;1.58;;;26.30;62.10;;;;;;5059864;28;20285;-75
2022/09/02 10:05:34;;;;;;;5.47;1.35;;;26.30;62.10;;;;;;5059484;28;20191;-76
2022/09/02 10:08:05;;;;;;;3.92;1.40;;;26.30;62.00;;;;;;5057553;28;20189;-74
2022/09/02 10:10:57;;;;;;;4.28;1.67;;;26.30;62.10;;;;;;5058330;28;20190;-75
2022/09/02 10:13:28;;;;;;;4.15;1.73;;;26.40;62.30;;;;;;5058266;28;20191;-74
2022/09/02 10:16:22;;;;;;;4.80;1.85;;;26.30;61.60;;;;;;5066823;28;20571;-75
2022/09/02 10:18:55;;;;;;;5.93;1.60;;;26.30;61.50;;;;;;5060915;28;20194;-75
2022/09/02 10:21:37;;;;;;;4.65;1.85;;;26.40;61.90;;;;;;5070230;28;20187;-76
2022/09/02 10:24:18;;;;;;;3.28;1.13;;;26.40;61.60;;;;;;5073136;28;21024;-76
2022/09/02 10:26:50;;;;;;;5.22;1.60;;;26.50;61.70;;;;;;5060145;28;20226;-77
2022/09/02 10:29:53;;;;;;;3.72;1.60;;;26.50;61.60;;;;;;5066091;28;20209;-78
2022/09/02 10:32:36;;;;;;;5.95;2.03;;;26.60;61.30;;;;;;5064530;28;20232;-77
2022/09/02 10:35:11;;;;;;;4.15;1.60;;;26.60;61.20;;;;;;5063544;28;20656;-77
2022/09/02 10:37:52;;;;;;;5.10;1.70;;;26.70;61.50;;;;;;5059400;28;20230;-76
2022/09/02 10:40:27;;;;;;;6.32;1.25;;;26.70;61.00;;;;;;5037540;28;20282;-77
2022/09/02 10:43:04;;;;;;;2.90;1.60;;;26.80;61.20;;;;;;5035456;28;20195;-78
2022/09/02 10:45:37;;;;;;;5.88;1.80;;;26.80;60.80;;;;;;5039924;28;20567;-77
2022/09/02 10:48:21;;;;;;;4.10;1.70;;;26.80;60.60;;;;;;5036831;28;20313;-78
2022/09/02 10:50:55;;;;;;;4.97;1.42;;;26.90;60.50;;;;;;5035673;28;20203;-77
2022/09/02 10:53:51;;;;;;;2.85;1.48;;;27.00;61.00;;;;;;5039535;28;20190;-79
2022/09/02 10:56:23;;;;;;;6.78;1.42;;;27.00;60.40;;;;;;5024396;28;20204;-74
2022/09/02 10:59:00;;;;;;;6.50;2.05;;;27.00;59.80;;;;;;5043821;28;20188;-81
2022/09/02 11:01:35;;;;;;;8.23;1.70;;;27.10;59.90;;;;;;5040838;28;20539;-78
2022/09/02 11:04:09;;;;;;;7.47;1.77;;;27.10;61.10;;;;;;5038545;28;20189;-79
2022/09/02 11:06:42;;;;;;;3.08;1.48;;;27.10;60.30;;;;;;5039244;28;20198;-76
2022/09/02 11:09:35;;;;;;;3.75;1.60;;;27.00;59.70;;;;;;5041020;28;20202;-79
2022/09/02 11:12:11;;;;;;;6.72;1.58;;;27.00;59.20;;;;;;5037817;28;20222;-79
2022/09/02 11:14:55;;;;;;;3.17;1.45;;;26.90;59.10;;;;;;5035336;28;20203;-76
2022/09/02 11:17:28;;;;;;;7.18;1.63;;;26.80;59.40;;;;;;5036744;28;20303;-80
2022/09/02 11:20:01;;;;;;;6.13;1.73;;;26.90;59.80;;;;;;5037554;28;20664;-77
2022/09/02 11:22:38;;;;;;;2.85;1.35;;;26.90;59.80;;;;;;5036970;28;20183;-78
2022/09/02 11:25:12;;;;;;;3.95;1.75;;;26.90;59.60;;;;;;5038566;28;20756;-79
2022/09/02 11:27:47;;;;;;;5.13;1.60;;;26.80;59.70;;;;;;5038125;28;20712;-79
2022/09/02 11:30:20;;;;;;;3.97;1.50;;;26.90;60.00;;;;;;5034893;28;20203;-77
2022/09/02 11:32:54;;;;;;;3.22;1.88;;;26.90;59.80;;;;;;5041052;28;20207;-75
2022/09/02 11:35:26;;;;;;;3.72;1.30;;;26.90;59.80;;;;;;5034483;28;20653;-77
2022/09/02 11:38:00;;;;;;;3.00;1.30;;;27.00;60.10;;;;;;5036091;28;20325;-78
2022/09/02 11:40:36;;;;;;;4.50;1.55;;;27.10;60.30;;;;;;5033746;28;20188;-78
2022/09/02 11:43:29;;;;;;;7.38;1.85;;;27.10;60.30;;;;;;5032729;28;20652;-78
2022/09/02 11:46:21;;;;;;;5.35;1.50;;;27.10;60.30;;;;;;5040868;28;20211;-79
2022/09/02 11:49:14;;;;;;;4.28;1.50;;;27.10;58.90;;;;;;5037601;28;20260;-77
2022/09/02 11:52:01;;;;;;;4.45;1.40;;;27.10;58.80;;;;;;5036461;28;20192;-75
2022/09/02 11:54:37;;;;;;;3.33;1.50;;;27.10;59.00;;;;;;5037937;28;20194;-76
2022/09/02 11:57:06;;;;;;;3.22;1.27;;;27.10;59.30;;;;;;5036828;28;20223;-75
2022/09/02 12:00:13;;;;;;;4.20;1.50;;;27.10;58.80;;;;;;5032840;28;20218;-80
2022/09/02 12:02:46;;;;;;;3.00;1.50;;;27.10;58.80;;;;;;5038973;28;20196;-77
2022/09/02 12:05:46;;;;;;;3.20;1.50;;;27.00;58.70;;;;;;5037978;28;20203;-74
2022/09/02 12:09:10;;;;;;;3.33;1.38;;;27.00;58.20;;;;;;4985007;28;20207;-75
2022/09/02 12:11:50;;;;;;;3.03;1.30;;;26.90;58.60;;;;;;5032276;28;20198;-78
2022/09/02 12:15:03;;;;;;;3.47;1.20;;;26.90;58.70;;;;;;5043909;28;20194;-77
2022/09/02 12:17:39;;;;;;;3.83;1.42;;;26.90;59.00;;;;;;5032878;28;21945;-76
2022/09/02 12:20:30;;;;;;;4.53;1.65;;;26.90;59.10;;;;;;5038450;28;20201;-76
2022/09/02 12:22:59;;;;;;;4.90;1.60;;;26.80;59.00;;;;;;5037804;28;20192;-76
2022/09/02 12:25:42;;;;;;;2.90;1.40;;;26.90;59.00;;;;;;5036231;28;20205;-78
2022/09/02 12:28:22;;;;;;;5.65;1.73;;;26.80;59.10;;;;;;5047034;28;20293;-76
2022/09/02 12:31:19;;;;;;;9.20;1.58;;;26.80;58.90;;;;;;5034909;28;20201;-77
2022/09/02 12:33:50;;;;;;;4.30;1.65;;;26.80;59.10;;;;;;5025483;28;20218;-77
2022/09/02 12:36:50;;;;;;;5.97;1.52;;;26.80;59.20;;;;;;5024753;28;20290;-77
2022/09/02 12:39:52;;;;;;;6.32;1.58;;;26.80;59.40;;;;;;5040870;28;20215;-77
2022/09/02 12:42:30;;;;;;;6.32;2.03;;;26.70;59.10;;;;;;5036178;28;20194;-78
2022/09/02 12:45:06;;;;;;;2.60;1.25;;;26.70;59.00;;;;;;5037611;28;20775;-77
2022/09/02 12:47:49;;;;;;;3.80;1.60;;;26.70;58.80;;;;;;5038037;28;20270;-75
2022/09/02 12:50:25;;;;;;;3.75;1.30;;;26.60;58.80;;;;;;5041140;28;20876;-76
2022/09/02 12:53:11;;;;;;;5.65;1.70;;;26.60;58.80;;;;;;5034888;28;20546;-75
2022/09/02 12:55:42;;;;;;;3.28;1.58;;;26.60;59.00;;;;;;5037429;28;20231;-76
2022/09/02 12:58:13;;;;;;;5.47;1.38;;;26.60;59.20;;;;;;5033070;28;20210;-76
2022/09/02 13:01:05;;;;;;;9.23;1.48;;;26.60;59.40;;;;;;5038632;28;20195;-76
2022/09/02 13:03:57;;;;;;;3.33;1.60;;;26.50;59.00;;;;;;5039439;28;20641;-78
2022/09/02 13:06:42;;;;;;;5.28;1.80;;;26.50;59.20;;;;;;5041087;28;20199;-77
2022/09/02 13:09:49;;;;;;;2.95;1.48;;;26.50;59.40;;;;;;5040410;28;20191;-78
2022/09/02 13:12:41;;;;;;;2.38;1.27;;;26.40;59.70;;;;;;5039708;28;20218;-79
2022/09/02 13:15:23;;;;;;;8.82;1.80;;;26.40;59.20;;;;;;5037841;28;20191;-75
2022/09/02 13:18:25;;;;;;;7.40;2.38;;;26.40;59.40;;;;;;5039927;28;20209;-74
2022/09/02 13:21:22;;;;;;;9.70;1.98;;;26.40;59.50;;;;;;4971377;28;20781;-76
2022/09/02 13:24:24;;;;;;;4.63;1.80;;;26.40;59.70;;;;;;5034893;28;20191;-77